Time;durP1;ratioP1;P1;durP2;ratioP2;P2;SDS_P1;SDS_P2;PMS_P1;PMS_P2;Temp;Humidity;BMP_temperature;BMP_pressure;BME280_temperature;BME280_humidity;BME280_pressure;Samples;Min_cycle;Max_cycle;Signal;HPM_P1;HPM_P2
2021/10/19 00:00:48;;;;;;;;;25.00;20.75;;;;;15.18;73.68;101937.59;146604;626;46016;-82
2021/10/19 00:03:22;;;;;;;;;22.00;19.50;;;;;15.22;73.49;101939.53;146605;585;46020;-82
2021/10/19 00:05:56;;;;;;;;;23.75;20.50;;;;;15.25;73.56;101937.09;146605;599;47012;-82
2021/10/19 00:08:30;;;;;;;;;17.00;16.25;;;;;15.23;73.24;101931.81;146606;584;46001;-82
2021/10/19 00:11:04;;;;;;;;;17.00;15.50;;;;;15.23;73.27;101938.72;146602;594;46016;-82
2021/10/19 00:13:38;;;;;;;;;15.50;14.50;;;;;15.22;73.25;101936.94;146606;605;46021;-82
2021/10/19 00:16:13;;;;;;;;;17.00;16.75;;;;;15.17;73.34;101936.72;146604;673;47012;-82
2021/10/19 00:18:47;;;;;;;;;19.75;16.00;;;;;15.14;73.60;101938.25;146604;571;46020;-82
2021/10/19 00:21:21;;;;;;;;;15.75;14.75;;;;;15.08;73.96;101938.84;146602;614;46013;-82
2021/10/19 00:23:55;;;;;;;;;19.00;17.00;;;;;15.00;73.91;101943.66;146606;652;46020;-82
2021/10/19 00:26:29;;;;;;;;;17.50;16.25;;;;;14.96;74.18;101938.19;146603;606;46016;-80
2021/10/19 00:29:05;;;;;;;;;19.25;16.25;;;;;14.89;74.57;101936.97;146607;611;46025;-81
2021/10/19 00:31:39;;;;;;;;;18.50;16.50;;;;;14.84;74.75;101940.16;146601;609;48012;-80
2021/10/19 00:34:13;;;;;;;;;17.25;16.75;;;;;14.79;74.69;101940.78;146607;591;45049;-81
2021/10/19 00:36:47;;;;;;;;;17.50;16.50;;;;;14.79;74.72;101940.78;146602;617;46017;-79
2021/10/19 00:39:22;;;;;;;;;16.00;16.00;;;;;14.77;74.52;101936.34;146607;602;46020;-80
2021/10/19 00:41:55;;;;;;;;;17.75;17.50;;;;;14.77;74.56;101938.94;146605;646;46012;-80
2021/10/19 00:44:29;;;;;;;;;15.00;13.75;;;;;14.78;74.50;101943.34;146605;638;46021;-80
2021/10/19 00:47:03;;;;;;;;;14.50;13.00;;;;;14.78;74.54;101932.91;146603;576;47012;-79
2021/10/19 00:49:37;;;;;;;;;15.00;13.25;;;;;14.80;74.56;101941.72;146608;606;45020;-80
2021/10/19 00:52:11;;;;;;;;;16.50;14.25;;;;;14.83;74.27;101943.56;146602;652;46017;-80
2021/10/19 00:54:46;;;;;;;;;16.75;15.50;;;;;14.82;74.23;101940.06;146607;563;46012;-81
2021/10/19 00:57:20;;;;;;;;;16.00;15.00;;;;;14.83;74.31;101938.34;146602;584;46021;-80
2021/10/19 01:00:01;;;;;;;;;16.75;13.50;;;;;14.80;73.80;101941.72;146605;566;47012;-80
2021/10/19 01:02:35;;;;;;;;;17.75;16.00;;;;;14.80;74.08;101936.50;146602;573;46016;-85
2021/10/19 01:05:10;;;;;;;;;19.25;19.25;;;;;14.77;74.28;101939.84;146607;587;46020;-83
2021/10/19 01:07:47;;;;;;;;;21.25;18.00;;;;;14.76;74.35;101939.72;146603;644;46016;-81
2021/10/19 01:10:21;;;;;;;;;19.25;17.75;;;;;14.73;74.87;101952.63;146601;606;46020;-80
2021/10/19 01:12:55;;;;;;;;;20.00;18.00;;;;;14.65;75.23;101948.72;146605;567;47013;-81
2021/10/19 01:15:34;;;;;;;;;21.50;18.25;;;;;14.58;74.85;101947.50;146606;628;47008;-75
2021/10/19 01:18:08;;;;;;;;;22.75;21.25;;;;;14.57;75.12;101958.72;146602;614;46016;-79
2021/10/19 01:20:42;;;;;;;;;22.25;19.25;;;;;14.54;75.93;101955.94;146606;613;46020;-79
2021/10/19 01:23:16;;;;;;;;;18.25;18.25;;;;;14.55;75.98;101955.16;146604;664;47018;-76
2021/10/19 01:25:52;;;;;;;;;20.50;17.50;;;;;14.53;75.83;101955.06;146605;752;46029;-77
2021/10/19 01:28:26;;;;;;;;;19.00;15.25;;;;;14.53;76.05;101962.00;146603;632;46031;-77
2021/10/19 01:31:00;;;;;;;;;22.50;18.75;;;;;14.55;76.27;101955.16;146605;606;46030;-77
2021/10/19 01:33:36;;;;;;;;;15.00;15.00;;;;;13.48;76.02;101769.22;146600;652;46016;-77
2021/10/19 01:36:12;;;;;;;;;18.25;18.25;;;;;14.54;76.72;101956.84;146604;599;46021;-77
2021/10/19 01:38:46;;;;;;;;;18.75;18.25;;;;;14.54;77.36;101955.94;146601;650;46016;-78
2021/10/19 01:41:20;;;;;;;;;15.50;15.50;;;;;14.53;76.94;101956.78;146609;572;46010;-76
2021/10/19 01:43:54;;;;;;;;;20.50;17.50;;;;;14.49;76.54;101952.19;146601;600;46017;-76
2021/10/19 01:46:28;;;;;;;;;18.25;16.00;;;;;14.49;76.00;101962.63;146608;609;46020;-75
2021/10/19 01:49:02;;;;;;;;;20.75;18.00;;;;;14.48;76.55;101951.25;146603;587;46016;-77
2021/10/19 01:51:36;;;;;;;;;22.25;20.50;;;;;14.47;76.25;101954.69;146607;597;46021;-77
2021/10/19 01:54:10;;;;;;;;;19.25;15.50;;;;;14.51;76.04;101958.38;146603;611;47911;-76
2021/10/19 01:56:44;;;;;;;;;20.50;20.00;;;;;14.53;76.18;101960.28;146608;572;46010;-76
2021/10/19 01:59:18;;;;;;;;;19.25;18.50;;;;;14.57;76.37;101958.72;146602;587;46019;-75
2021/10/19 02:01:52;;;;;;;;;16.00;16.00;;;;;14.59;76.13;101962.34;146606;658;46020;-72
2021/10/19 02:04:26;;;;;;;;;18.50;17.75;;;;;14.63;76.80;101953.84;146601;566;46017;-72
2021/10/19 02:07:00;;;;;;;;;17.25;14.75;;;;;14.62;76.80;101953.78;146607;625;46023;-72
2021/10/19 02:09:33;;;;;;;;;19.25;18.00;;;;;14.65;76.52;101964.38;146603;637;46026;-72
2021/10/19 02:12:08;;;;;;;;;16.25;15.00;;;;;14.67;76.83;101966.28;146607;597;46021;-80
2021/10/19 02:14:45;;;;;;;;;18.25;16.50;;;;;14.67;76.61;101960.13;146602;624;47012;-81
2021/10/19 02:17:19;;;;;;;;;19.50;18.00;;;;;14.71;76.31;101957.78;146606;610;46010;-80
2021/10/19 02:19:53;;;;;;;;;20.25;17.25;;;;;14.76;76.18;101958.00;146604;598;46035;-80
2021/10/19 02:22:27;;;;;;;;;16.75;16.25;;;;;14.81;75.99;101960.88;146606;686;46012;-79
2021/10/19 02:25:02;;;;;;;;;18.00;18.00;;;;;14.85;76.22;101955.00;146602;584;46016;-80
2021/10/19 02:27:36;;;;;;;;;17.25;17.25;;;;;14.88;75.90;101955.16;146605;595;46011;-80
2021/10/19 02:30:21;;;;;;;;;19.50;18.00;;;;;14.92;75.87;101957.12;146604;600;47012;-80
2021/10/19 02:32:56;;;;;;;;;21.25;19.50;;;;;14.92;76.49;101950.19;146607;617;46020;-79
2021/10/19 02:35:30;;;;;;;;;25.75;21.75;;;;;14.92;75.92;101951.87;146602;572;46017;-80
2021/10/19 02:38:04;;;;;;;;;17.50;17.25;;;;;14.92;76.10;101951.87;146608;582;46020;-80
2021/10/19 02:40:38;;;;;;;;;25.00;22.50;;;;;14.93;75.88;101953.72;146603;656;46016;-79
2021/10/19 02:43:12;;;;;;;;;23.75;21.00;;;;;14.96;75.87;101948.66;146606;578;46020;-79
2021/10/19 02:45:46;;;;;;;;;17.75;16.00;;;;;14.97;76.03;101953.03;146601;563;46016;-79
2021/10/19 02:48:20;;;;;;;;;21.75;19.50;;;;;14.98;76.44;101960.06;146606;584;47012;-79
2021/10/19 02:50:53;;;;;;;;;22.50;19.50;;;;;14.98;76.26;101957.44;146603;613;46017;-80
2021/10/19 02:53:27;;;;;;;;;17.50;17.50;;;;;15.00;76.18;101963.66;146604;590;46020;-80
2021/10/19 02:56:01;;;;;;;;;18.00;17.75;;;;;15.01;76.35;101962.81;146603;581;46016;-80
2021/10/19 02:58:35;;;;;;;;;23.25;20.00;;;;;14.99;76.46;101964.47;146609;570;46010;-79
2021/10/19 03:01:09;;;;;;;;;20.00;18.00;;;;;14.98;76.79;101968.81;146603;620;46016;-78
2021/10/19 03:03:44;;;;;;;;;24.50;23.25;;;;;14.95;76.48;101971.25;146603;607;46021;-77
2021/10/19 03:06:18;;;;;;;;;24.75;22.00;;;;;14.92;76.08;101978.00;146603;584;46016;-84
2021/10/19 03:08:51;;;;;;;;;23.00;21.25;;;;;14.90;76.52;101970.09;146606;603;47008;-84
2021/10/19 03:11:25;;;;;;;;;19.50;18.75;;;;;14.88;76.81;101973.44;146604;564;46013;-84
2021/10/19 03:13:59;;;;;;;;;22.25;19.25;;;;;14.86;77.41;101975.06;146606;571;46012;-85
2021/10/19 03:16:33;;;;;;;;;26.00;21.75;;;;;14.84;77.85;101979.34;146601;634;46016;-85
2021/10/19 03:19:07;;;;;;;;;22.50;20.75;;;;;14.78;78.71;101980.78;146604;597;46021;-84
2021/10/19 03:21:41;;;;;;;;;24.00;23.50;;;;;14.73;78.30;101974.41;146605;715;46033;-84
2021/10/19 03:24:15;;;;;;;;;21.75;19.50;;;;;14.72;77.82;101979.56;146606;620;46020;-84
2021/10/19 03:26:52;;;;;;;;;25.50;20.00;;;;;14.70;77.53;101970.72;146605;593;46013;-84
2021/10/19 03:29:26;;;;;;;;;29.25;23.25;;;;;14.71;77.24;101972.56;146607;585;46020;-84
2021/10/19 03:32:00;;;;;;;;;26.00;23.00;;;;;14.73;77.06;101973.50;146603;609;47018;-84
2021/10/19 03:34:33;;;;;;;;;20.50;19.00;;;;;14.77;77.23;101973.78;146605;622;46021;-83
2021/10/19 03:37:08;;;;;;;;;23.00;22.50;;;;;14.78;77.32;101972.94;146605;622;45909;-83
2021/10/19 03:39:42;;;;;;;;;21.25;16.50;;;;;14.79;77.79;101977.34;146605;607;46909;-79
2021/10/19 03:42:16;;;;;;;;;25.25;22.75;;;;;14.78;77.98;101979.88;146604;637;46017;-79
2021/10/19 03:44:50;;;;;;;;;21.50;21.50;;;;;14.76;77.22;101985.00;146603;571;46020;-79
2021/10/19 03:47:24;;;;;;;;;22.25;21.25;;;;;14.74;76.98;101984.06;146604;577;46016;-78
2021/10/19 03:49:58;;;;;;;;;20.25;19.00;;;;;14.80;76.99;101996.56;146610;570;45021;-79
2021/10/19 03:52:32;;;;;;;;;20.50;18.25;;;;;14.85;77.17;101991.56;146599;639;47909;-79
2021/10/19 03:55:07;;;;;;;;;22.00;20.75;;;;;14.86;78.89;101993.34;146606;587;46020;-80
2021/10/19 03:57:40;;;;;;;;;18.75;17.25;;;;;14.82;78.00;101994.91;146604;597;46035;-80
2021/10/19 04:00:15;;;;;;;;;20.00;17.75;;;;;14.82;77.04;102004.44;146608;606;46029;-78
2021/10/19 04:02:49;;;;;;;;;20.25;18.50;;;;;14.82;76.87;101999.22;146604;604;46018;-79
2021/10/19 04:05:23;;;;;;;;;20.25;17.50;;;;;14.85;77.61;101996.78;146608;591;46020;-78
2021/10/19 04:07:57;;;;;;;;;23.25;19.75;;;;;14.84;77.13;102002.84;146604;643;46016;-79
2021/10/19 04:10:31;;;;;;;;;23.00;19.25;;;;;14.84;77.52;102010.66;146603;630;46020;-83
2021/10/19 04:13:04;;;;;;;;;23.50;18.25;;;;;14.86;77.31;102015.16;146599;570;48019;-85
2021/10/19 04:15:39;;;;;;;;;25.75;21.00;;;;;14.85;77.87;102015.06;146607;577;46010;-85
2021/10/19 04:18:13;;;;;;;;;23.50;21.00;;;;;14.85;77.43;102008.12;146604;600;46016;-85
2021/10/19 04:20:47;;;;;;;;;24.50;20.50;;;;;14.85;77.17;102022.91;146608;650;46020;-85
2021/10/19 04:23:21;;;;;;;;;21.75;18.50;;;;;14.85;78.27;102029.00;146603;575;46016;-85
2021/10/19 04:25:55;;;;;;;;;23.25;20.25;;;;;14.85;77.38;102023.78;146608;600;46013;-84
2021/10/19 04:28:29;;;;;;;;;27.75;23.00;;;;;14.82;79.70;102022.72;146605;590;47019;-87
2021/10/19 04:31:03;;;;;;;;;21.75;19.25;;;;;14.79;78.17;102026.06;146605;599;46020;-86
2021/10/19 04:33:37;;;;;;;;;18.25;17.75;;;;;14.81;77.94;102034.00;146603;646;46017;-83
2021/10/19 04:36:11;;;;;;;;;22.25;19.50;;;;;14.85;78.21;102028.12;146604;579;46020;-85
2021/10/19 04:38:46;;;;;;;;;25.75;22.75;;;;;14.89;77.37;102035.28;146606;638;46012;-86
2021/10/19 04:41:20;;;;;;;;;25.00;22.00;;;;;14.94;77.96;102036.47;146609;621;46021;-86
2021/10/19 04:43:54;;;;;;;;;23.75;20.75;;;;;14.97;77.63;102023.56;146604;591;46016;-87
2021/10/19 04:46:28;;;;;;;;;25.25;21.00;;;;;14.99;77.19;102024.56;146605;591;46020;-79
2021/10/19 04:49:03;;;;;;;;;22.50;17.50;;;;;15.04;77.09;102030.00;146605;634;46016;-79
2021/10/19 04:51:38;;;;;;;;;22.25;19.25;;;;;15.04;77.57;102024.78;146605;658;47010;-79
2021/10/19 04:54:12;;;;;;;;;26.75;23.00;;;;;15.10;77.18;102031.25;146603;616;47012;-80
2021/10/19 04:56:46;;;;;;;;;25.00;22.00;;;;;15.12;77.10;102027.00;146604;612;46021;-77
2021/10/19 04:59:20;;;;;;;;;20.75;17.25;;;;;15.15;77.15;102028.88;146604;640;46012;-79
2021/10/19 05:01:54;;;;;;;;;22.00;20.75;;;;;15.17;77.02;102035.06;146606;622;46012;-82
2021/10/19 05:04:28;;;;;;;;;31.25;27.00;;;;;15.22;77.13;102036.22;146603;661;47017;-83
2021/10/19 05:07:09;;;;;;;;;25.50;21.75;;;;;15.24;77.26;102030.28;146605;570;47012;-79
2021/10/19 05:09:43;;;;;;;;;21.75;19.50;;;;;15.28;77.21;102043.50;146602;590;46016;-81
2021/10/19 05:12:17;;;;;;;;;30.50;27.75;;;;;15.29;77.08;102029.59;146608;628;45023;-81
2021/10/19 05:14:51;;;;;;;;;22.00;21.00;;;;;15.28;77.28;102031.31;146601;686;47012;-81
2021/10/19 05:17:24;;;;;;;;;28.25;22.50;;;;;15.31;77.07;102030.59;146606;610;46021;-81
2021/10/19 05:19:58;;;;;;;;;23.75;20.25;;;;;15.31;78.07;102041.94;146606;644;47019;-81
2021/10/19 05:22:33;;;;;;;;;24.00;21.25;;;;;15.29;79.19;102035.72;146608;629;46020;-81
2021/10/19 05:25:08;;;;;;;;;22.75;19.75;;;;;15.25;77.74;102032.06;146603;582;46013;-82
2021/10/19 05:27:42;;;;;;;;;25.50;21.25;;;;;15.24;77.41;102034.59;146607;721;46020;-81
2021/10/19 05:30:17;;;;;;;;;19.25;17.00;;;;;15.25;77.87;102045.12;146605;614;45909;-82
2021/10/19 05:32:51;;;;;;;;;22.25;20.25;;;;;15.25;77.52;102047.72;146605;565;46021;-82
2021/10/19 05:35:25;;;;;;;;;23.75;20.00;;;;;15.26;77.18;102043.41;146604;577;46012;-81
2021/10/19 05:37:59;;;;;;;;;28.25;24.00;;;;;15.37;75.42;102057.06;146606;607;46020;-80
2021/10/19 05:40:33;;;;;;;;;27.00;21.50;;;;;15.46;74.77;102052.31;146603;702;46025;-81
2021/10/19 05:43:07;;;;;;;;;22.75;20.50;;;;;15.58;74.17;102057.28;146606;579;46010;-81
2021/10/19 05:45:41;;;;;;;;;31.25;24.50;;;;;15.65;72.25;102059.41;146601;588;46016;-81
2021/10/19 05:48:15;;;;;;;;;20.50;19.00;;;;;15.74;72.35;102064.25;146608;629;46011;-80
2021/10/19 05:50:50;;;;;;;;;27.75;23.50;;;;;15.79;72.54;102073.19;146605;615;46909;-80
2021/10/19 05:53:24;;;;;;;;;24.00;23.75;;;;;15.83;72.83;102083.91;146601;581;47010;-81
2021/10/19 05:55:58;;;;;;;;;21.00;19.50;;;;;15.90;72.38;102095.59;146603;627;47018;-81
2021/10/19 05:58:32;;;;;;;;;20.25;17.00;;;;;15.94;70.80;102092.31;146610;573;46010;-80
2021/10/19 06:01:06;;;;;;;;;23.50;20.00;;;;;16.00;71.99;102103.09;146600;679;46016;-81
2021/10/19 06:03:40;;;;;;;;;15.75;13.00;;;;;16.05;71.66;102108.56;146607;574;46021;-81
2021/10/19 06:06:18;;;;;;;;;21.50;20.50;;;;;16.10;71.88;102101.81;146605;570;46012;-82
2021/10/19 06:08:53;;;;;;;;;23.00;18.75;;;;;16.13;71.91;102108.09;146605;609;46020;-80
2021/10/19 06:11:27;;;;;;;;;20.50;19.00;;;;;16.17;71.79;102106.56;146603;648;46016;-81
2021/10/19 06:14:02;;;;;;;;;22.25;17.50;;;;;16.21;73.55;102118.09;146607;606;46020;-82
2021/10/19 06:16:36;;;;;;;;;17.50;16.75;;;;;16.22;74.65;102112.91;146602;597;47018;-80
2021/10/19 06:19:10;;;;;;;;;15.75;13.25;;;;;16.22;76.49;102106.78;146605;570;46012;-81
2021/10/19 06:21:45;;;;;;;;;15.00;13.25;;;;;16.26;77.33;102109.66;146603;709;46016;-79
2021/10/19 06:24:20;;;;;;;;;13.75;12.00;;;;;16.29;75.58;102114.13;146607;581;46021;-80
2021/10/19 06:26:54;;;;;;;;;14.75;12.00;;;;;16.32;74.61;102112.56;146601;593;46012;-80
2021/10/19 06:29:29;;;;;;;;;16.00;12.25;;;;;16.39;73.64;102125.13;146608;614;46010;-79
2021/10/19 06:32:03;;;;;;;;;15.25;13.00;;;;;16.46;72.88;102122.81;146602;676;47013;-80
2021/10/19 06:34:37;;;;;;;;;18.25;17.75;;;;;16.49;72.29;102117.75;146605;572;47010;-80
2021/10/19 06:37:11;;;;;;;;;22.75;19.75;;;;;16.59;71.43;102139.19;146606;575;46033;-79
2021/10/19 06:39:45;;;;;;;;;24.50;21.75;;;;;16.64;71.14;102149.91;146607;590;46021;-80
2021/10/19 06:42:19;;;;;;;;;19.00;17.50;;;;;16.68;70.50;102146.62;146601;579;46016;-79
2021/10/19 06:44:53;;;;;;;;;21.25;19.00;;;;;16.72;70.32;102152.91;146604;588;46020;-81
2021/10/19 06:47:27;;;;;;;;;23.50;22.25;;;;;16.78;69.48;102153.25;146605;591;46017;-81
2021/10/19 06:50:04;;;;;;;;;20.00;15.50;;;;;16.82;69.39;102163.03;146608;585;46010;-80
2021/10/19 06:52:38;;;;;;;;;21.50;20.50;;;;;16.83;69.76;102157.88;146604;618;47012;-81
2021/10/19 06:55:13;;;;;;;;;15.00;12.75;;;;;16.93;70.19;102168.81;146606;610;46011;-79
2021/10/19 06:57:48;;;;;;;;;19.25;16.75;;;;;16.99;70.43;102170.00;146605;586;46012;-80
2021/10/19 07:00:22;;;;;;;;;20.50;19.00;;;;;17.06;70.16;102171.19;146606;649;47010;-80
2021/10/19 07:02:56;;;;;;;;;20.50;19.00;;;;;17.11;69.40;102174.03;146604;593;46035;-80
2021/10/19 07:05:30;;;;;;;;;20.75;17.50;;;;;17.12;69.39;102181.97;146602;741;46020;-79
2021/10/19 07:08:06;;;;;;;;;19.00;16.25;;;;;17.11;70.17;102180.19;146603;663;46909;-79
2021/10/19 07:10:40;;;;;;;;;22.00;18.00;;;;;17.11;70.18;102188.03;146603;666;47010;-80
2021/10/19 07:13:21;;;;;;;;;19.25;18.25;;;;;17.13;70.16;102188.09;146606;616;46016;-80
2021/10/19 07:15:56;;;;;;;;;16.50;15.50;;;;;17.21;70.27;102198.12;146608;628;46026;-79
2021/10/19 07:18:30;;;;;;;;;21.75;18.50;;;;;17.26;70.34;102195.75;146605;570;46012;-79
2021/10/19 07:21:04;;;;;;;;;17.00;15.75;;;;;17.35;69.01;102201.38;146605;599;45022;-80
2021/10/19 07:23:38;;;;;;;;;18.75;18.75;;;;;17.42;69.55;102199.97;146601;602;46017;-80
2021/10/19 07:26:12;;;;;;;;;21.25;21.00;;;;;17.49;69.11;102205.56;146608;624;46012;-80
2021/10/19 07:28:46;;;;;;;;;16.25;15.75;;;;;17.58;69.32;102205.09;146602;564;46016;-80
2021/10/19 07:31:20;;;;;;;;;19.25;16.00;;;;;17.67;69.55;102212.50;146606;565;47011;-81
2021/10/19 07:33:54;;;;;;;;;21.75;19.25;;;;;17.77;69.76;102213.00;146602;566;47019;-81
2021/10/19 07:36:29;;;;;;;;;21.75;18.75;;;;;17.89;69.41;102211.78;146604;616;46020;-81
2021/10/19 07:39:03;;;;;;;;;24.75;19.75;;;;;17.99;69.30;102209.63;146603;636;46017;-79
2021/10/19 07:41:37;;;;;;;;;17.50;17.00;;;;;18.14;69.18;102198.91;146606;576;46020;-80
2021/10/19 07:44:11;;;;;;;;;19.25;18.00;;;;;18.34;68.42;102207.66;146603;563;46016;-79
2021/10/19 07:46:45;;;;;;;;;19.25;16.50;;;;;18.51;67.76;102215.38;146605;682;46010;-80
2021/10/19 07:49:19;;;;;;;;;16.75;15.75;;;;;18.59;67.55;102211.31;146601;635;46016;-79
2021/10/19 07:51:53;;;;;;;;;19.50;18.75;;;;;18.66;67.83;102216.00;146606;660;47012;-78
2021/10/19 07:54:26;;;;;;;;;17.25;16.50;;;;;18.76;67.96;102212.09;146602;635;46034;-79
2021/10/19 07:57:00;;;;;;;;;17.75;16.50;;;;;18.87;68.09;102216.03;146607;626;46020;-79
2021/10/19 07:59:34;;;;;;;;;13.50;13.00;;;;;18.97;68.10;102209.41;146603;590;46016;-78
2021/10/19 08:02:08;;;;;;;;;15.00;14.00;;;;;19.09;67.12;102217.78;146608;615;45023;-79
2021/10/19 08:04:42;;;;;;;;;18.50;14.25;;;;;19.18;66.76;102218.16;146604;591;47012;-79
2021/10/19 08:07:16;;;;;;;;;19.00;16.50;;;;;19.27;66.42;102222.91;146608;622;46010;-79
2021/10/19 08:09:50;;;;;;;;;20.25;18.50;;;;;19.34;66.14;102225.81;146601;650;47910;-79
2021/10/19 08:12:24;;;;;;;;;16.75;16.00;;;;;19.38;65.83;102225.12;146602;571;47012;-78
2021/10/19 08:15:01;;;;;;;;;15.50;15.50;;;;;19.41;65.04;102220.78;146603;639;46016;-79
2021/10/19 08:17:36;;;;;;;;;19.25;15.00;;;;;19.49;64.81;102217.63;146607;576;46020;-77
2021/10/19 08:20:12;;;;;;;;;19.25;16.50;;;;;19.60;64.62;102218.94;146604;683;47014;-78
2021/10/19 08:22:46;;;;;;;;;17.75;16.00;;;;;19.70;64.98;102219.34;146606;704;46010;-78
2021/10/19 08:25:20;;;;;;;;;18.50;15.75;;;;;19.82;65.10;102215.41;146604;569;47012;-78
2021/10/19 08:27:55;;;;;;;;;17.25;14.75;;;;;20.06;64.91;102220.69;146603;618;47010;-78
2021/10/19 08:30:30;;;;;;;;;17.50;16.50;;;;;20.42;64.58;102219.31;146605;572;46016;-76
2021/10/19 08:33:04;;;;;;;;;14.50;13.00;;;;;20.86;62.22;102219.94;146607;582;46020;-77
2021/10/19 08:35:41;;;;;;;;;12.00;12.00;;;;;21.23;60.68;102219.38;146602;721;46016;-77
2021/10/19 08:38:15;;;;;;;;;18.00;14.00;;;;;21.53;59.70;102208.91;146607;586;46021;-76
2021/10/19 08:40:49;;;;;;;;;19.00;13.50;;;;;21.68;57.68;102221.62;146603;576;46016;-77
2021/10/19 08:43:31;;;;;;;;;18.25;17.25;;;;;21.79;55.05;102227.25;146605;640;46020;-76
2021/10/19 08:46:05;;;;;;;;;18.00;14.75;;;;;21.94;58.72;102227.69;146602;629;46017;-77
2021/10/19 08:48:40;;;;;;;;;17.25;16.00;;;;;22.16;57.08;102217.72;146605;626;46909;-77
2021/10/19 08:51:14;;;;;;;;;15.75;13.00;;;;;22.36;57.92;102228.00;146604;613;47012;-77
2021/10/19 08:53:48;;;;;;;;;18.75;18.00;;;;;22.59;57.73;102227.72;146601;572;46021;-77
2021/10/19 08:56:21;;;;;;;;;15.50;14.75;;;;;22.78;57.50;102227.34;146604;643;46033;-77
2021/10/19 08:59:04;;;;;;;;;19.25;17.00;;;;;22.90;58.29;102231.16;146607;565;46030;-76
2021/10/19 09:01:44;;;;;;;;;14.00;13.75;;;;;22.97;56.78;102226.06;146599;619;47014;-76
2021/10/19 09:04:18;;;;;;;;;17.25;15.50;;;;;23.03;57.62;102222.69;146603;581;46020;-77
2021/10/19 09:06:52;;;;;;;;;16.00;15.00;;;;;23.09;54.94;102222.81;146602;588;46016;-78
2021/10/19 09:09:26;;;;;;;;;18.50;16.00;;;;;23.07;55.85;102226.28;146608;629;46010;-78
2021/10/19 09:12:01;;;;;;;;;17.50;15.50;;;;;23.15;55.98;102227.38;146605;579;47012;-78
2021/10/19 09:14:44;;;;;;;;;18.00;16.00;;;;;23.31;55.87;102225.97;146607;564;45043;-80
2021/10/19 09:17:18;;;;;;;;;18.00;15.50;;;;;23.38;55.75;102223.47;146601;596;47012;-77
2021/10/19 09:19:52;;;;;;;;;14.00;13.75;;;;;23.38;54.62;102228.78;146604;636;46020;-78
2021/10/19 09:22:26;;;;;;;;;18.25;17.00;;;;;23.42;56.48;102219.16;146603;625;46016;-78
2021/10/19 09:25:00;;;;;;;;;17.00;15.00;;;;;23.49;55.95;102227.28;146607;565;46020;-77
2021/10/19 09:27:34;;;;;;;;;17.00;15.50;;;;;23.50;56.04;102218.47;146603;579;46016;-78
2021/10/19 09:30:11;;;;;;;;;17.25;16.00;;;;;23.59;56.56;102216.87;146605;672;46021;-78
2021/10/19 09:32:54;;;;;;;;;18.00;16.75;;;;;23.71;55.15;102210.13;146603;565;46908;-76
2021/10/19 09:35:29;;;;;;;;;17.50;16.25;;;;;23.66;51.86;102210.84;146608;678;46029;-78
2021/10/19 09:38:09;;;;;;;;;25.75;23.75;;;;;23.52;52.37;102207.91;146605;606;46013;-79
2021/10/19 09:40:49;;;;;;;;;24.75;22.75;;;;;23.45;52.18;102219.22;146605;600;46020;-79
2021/10/19 09:43:25;;;;;;;;;27.25;25.50;;;;;23.29;52.99;102216.22;146603;588;46016;-79
2021/10/19 09:45:59;;;;;;;;;24.75;21.50;;;;;23.01;51.72;102217.34;146601;577;46021;-77
2021/10/19 09:48:34;;;;;;;;;26.00;23.25;;;;;22.68;54.32;102206.81;146604;698;46016;-80
2021/10/19 09:51:08;;;;;;;;;31.00;25.00;;;;;22.37;54.08;102202.50;146604;633;46020;-78
2021/10/19 09:53:44;;;;;;;;;24.00;22.00;;;;;22.16;56.30;102201.88;146600;607;46019;-80
2021/10/19 09:56:20;;;;;;;;;28.00;26.25;;;;;21.94;56.05;102201.28;146607;616;46020;-80
2021/10/19 09:58:54;;;;;;;;;17.00;16.25;;;;;21.66;55.96;102197.84;146606;610;46016;-80
2021/10/19 10:01:28;;;;;;;;;18.50;16.25;;;;;21.30;56.85;102196.72;146605;565;47012;-80
2021/10/19 10:04:03;;;;;;;;;18.50;14.25;;;;;21.04;59.49;102199.44;146606;583;46018;-78
2021/10/19 10:06:38;;;;;;;;;25.00;20.75;;;;;20.88;60.03;102202.44;146606;652;46020;-78
2021/10/19 10:09:13;;;;;;;;;16.25;14.75;;;;;20.83;60.05;102201.38;146597;609;46016;-77
2021/10/19 10:11:47;;;;;;;;;16.75;15.25;;;;;20.93;60.35;102193.84;146603;577;47010;-78
2021/10/19 10:14:21;;;;;;;;;13.25;12.75;;;;;20.96;59.62;102199.19;146604;564;46016;-78
2021/10/19 10:16:55;;;;;;;;;14.50;14.00;;;;;20.85;58.85;102199.69;146607;640;46908;-78
2021/10/19 10:19:37;;;;;;;;;14.75;14.75;;;;;20.68;59.50;102197.38;146605;611;46012;-79
2021/10/19 10:22:28;;;;;;;;;23.75;17.75;;;;;20.59;60.10;102196.19;146606;665;46011;-79
2021/10/19 10:25:13;;;;;;;;;16.50;15.50;;;;;20.50;61.17;102207.31;146603;569;46016;-78
2021/10/19 10:27:48;;;;;;;;;16.00;15.50;;;;;20.48;62.47;102199.31;146607;641;46010;-78
2021/10/19 10:30:26;;;;;;;;;20.75;18.75;;;;;20.51;61.68;102204.72;146603;597;46017;-78
2021/10/19 10:33:09;;;;;;;;;19.75;16.00;;;;;20.53;61.92;102195.16;146607;566;47010;-78
2021/10/19 10:35:50;;;;;;;;;20.50;16.75;;;;;20.54;61.87;102198.69;146603;664;46016;-80
2021/10/19 10:38:24;;;;;;;;;17.00;17.00;;;;;20.47;59.77;102202.81;146602;573;47008;-79
2021/10/19 10:41:11;;;;;;;;;20.00;17.50;;;;;20.37;60.87;102199.78;146604;598;46016;-81
2021/10/19 10:43:46;;;;;;;;;23.75;20.00;;;;;20.23;62.07;102200.22;146607;620;46010;-80
2021/10/19 10:46:24;;;;;;;;;19.75;18.00;;;;;20.08;62.95;102203.19;146603;609;46016;-78
2021/10/19 10:48:58;;;;;;;;;25.50;22.00;;;;;19.89;63.22;102199.84;146605;618;46010;-80
2021/10/19 10:51:37;;;;;;;;;17.25;17.25;;;;;19.71;63.54;102198.31;146605;596;47012;-80
2021/10/19 10:54:16;;;;;;;;;20.00;20.00;;;;;19.60;63.87;102200.53;146605;607;47010;-82
2021/10/19 10:56:58;;;;;;;;;16.50;16.00;;;;;19.53;64.82;102192.31;146602;563;46016;-79
2021/10/19 10:59:35;;;;;;;;;21.50;17.75;;;;;19.52;65.01;102198.44;146605;602;46021;-79
2021/10/19 11:02:13;;;;;;;;;19.50;18.25;;;;;19.49;64.65;102190.44;146603;636;46016;-82
2021/10/19 11:04:59;;;;;;;;;19.00;16.25;;;;;19.49;64.96;102180.78;146603;590;46020;-80
2021/10/19 11:07:38;;;;;;;;;16.75;15.50;;;;;19.44;65.02;102186.72;146604;571;46016;-78
2021/10/19 11:10:18;;;;;;;;;19.50;17.50;;;;;19.35;64.86;102182.91;146604;702;46022;-80
2021/10/19 11:13:03;;;;;;;;;20.00;17.00;;;;;19.30;65.27;102173.03;146604;636;46016;-79
2021/10/19 11:15:37;;;;;;;;;21.25;18.00;;;;;19.29;64.72;102182.69;146606;740;46020;-79
2021/10/19 11:18:21;;;;;;;;;21.75;18.25;;;;;19.30;64.52;102186.19;146605;592;47909;-79
2021/10/19 11:20:57;;;;;;;;;17.50;14.50;;;;;19.29;64.66;102182.69;146609;613;46021;-78
2021/10/19 11:23:31;;;;;;;;;21.00;18.00;;;;;19.30;64.61;102171.31;146603;586;46016;-78
2021/10/19 11:26:06;;;;;;;;;19.00;17.75;;;;;19.39;64.12;102173.41;146606;578;47010;-78
2021/10/19 11:28:41;;;;;;;;;19.25;17.00;;;;;19.55;63.69;102174.88;146603;613;47012;-79
2021/10/19 11:31:17;;;;;;;;;21.75;18.00;;;;;19.74;63.04;102169.47;146607;578;46010;-78
2021/10/19 11:33:51;;;;;;;;;18.25;15.50;;;;;20.00;60.83;102164.25;146604;570;46016;-80
2021/10/19 11:36:25;;;;;;;;;23.00;21.75;;;;;20.32;62.24;102153.97;146607;606;46021;-78
2021/10/19 11:39:03;;;;;;;;;20.00;18.50;;;;;20.56;59.78;102156.56;146603;631;46016;-79
2021/10/19 11:41:39;;;;;;;;;18.50;18.25;;;;;20.85;61.23;102153.13;146609;573;46010;-79
2021/10/19 11:44:13;;;;;;;;;18.00;16.25;;;;;21.08;60.84;102147.69;146604;564;47012;-78